Sipes Mill, Pennsylvania
Current Conditions -  °F | °C
As of 7:53 AM on Saturday 25 Oct 2014 (Local Time) from KHGR Reporting Station
Clear Clear  
Wind Chill: 44°   Ceiling: Unl
Heat Index: 46°   Visibility: 10mi
Dew Point: 38°   Wind: 5mph
Humidity: 73%   Direction: NA
Pressure: 29.96"   Gusts: NA
Location:  39.8811°N, 78.1402°W
Report Text: KHGR 251153Z VRB04KT 10SM CLR 08/03 A2996 RMK AO2 SLP155 T00780033 10117 20072 53001
Loading
Personal Weather Stations






























Interactive Weather Map
Tropical Storm Tracking
New forecast layout! Learn more

10-Day Weather Forecast

Advertisements
Track Severe Weather on mobile